sensor_id;sensor_type;location;lat;lon;timestamp;P1;durP1;ratioP1;P2;durP2;ratioP2
8252;SDS011;61313;48.396;10.008;2023-01-30T00:00:53;16.20;;;10.93;;
8252;SDS011;61313;48.396;10.008;2023-01-30T00:03:20;17.00;;;12.00;;
8252;SDS011;61313;48.396;10.008;2023-01-30T00:05:47;16.90;;;11.87;;
8252;SDS011;61313;48.396;10.008;2023-01-30T00:08:12;19.67;;;12.23;;
8252;SDS011;61313;48.396;10.008;2023-01-30T00:10:38;16.83;;;11.53;;
8252;SDS011;61313;48.396;10.008;2023-01-30T00:13:04;17.20;;;12.50;;
8252;SDS011;61313;48.396;10.008;2023-01-30T00:15:29;17.13;;;10.77;;
8252;SDS011;61313;48.396;10.008;2023-01-30T00:17:55;16.50;;;11.13;;
8252;SDS011;61313;48.396;10.008;2023-01-30T00:20:20;15.83;;;11.53;;
8252;SDS011;61313;48.396;10.008;2023-01-30T00:22:46;16.60;;;11.67;;
8252;SDS011;61313;48.396;10.008;2023-01-30T00:25:11;26.33;;;13.00;;
8252;SDS011;61313;48.396;10.008;2023-01-30T00:27:37;17.40;;;11.33;;
8252;SDS011;61313;48.396;10.008;2023-01-30T00:30:02;21.40;;;13.27;;
8252;SDS011;61313;48.396;10.008;2023-01-30T00:32:30;19.33;;;12.17;;
8252;SDS011;61313;48.396;10.008;2023-01-30T00:34:55;16.10;;;12.50;;
8252;SDS011;61313;48.396;10.008;2023-01-30T00:37:21;15.10;;;11.20;;
8252;SDS011;61313;48.396;10.008;2023-01-30T00:39:46;21.40;;;12.90;;
8252;SDS011;61313;48.396;10.008;2023-01-30T00:42:12;25.03;;;12.73;;
8252;SDS011;61313;48.396;10.008;2023-01-30T00:44:56;16.97;;;11.73;;
8252;SDS011;61313;48.396;10.008;2023-01-30T00:47:40;16.43;;;11.77;;
8252;SDS011;61313;48.396;10.008;2023-01-30T00:50:05;20.47;;;12.93;;
8252;SDS011;61313;48.396;10.008;2023-01-30T00:52:31;16.90;;;11.87;;
8252;SDS011;61313;48.396;10.008;2023-01-30T00:54:57;16.37;;;12.67;;
8252;SDS011;61313;48.396;10.008;2023-01-30T00:57:22;20.00;;;13.47;;
8252;SDS011;61313;48.396;10.008;2023-01-30T00:59:47;16.03;;;12.20;;
8252;SDS011;61313;48.396;10.008;2023-01-30T01:02:13;18.43;;;14.37;;
8252;SDS011;61313;48.396;10.008;2023-01-30T01:04:38;17.10;;;13.27;;
8252;SDS011;61313;48.396;10.008;2023-01-30T01:07:10;19.50;;;13.47;;
8252;SDS011;61313;48.396;10.008;2023-01-30T01:09:36;24.60;;;13.83;;
8252;SDS011;61313;48.396;10.008;2023-01-30T01:12:02;18.03;;;13.60;;
8252;SDS011;61313;48.396;10.008;2023-01-30T01:14:27;16.10;;;11.43;;
8252;SDS011;61313;48.396;10.008;2023-01-30T01:16:53;17.40;;;12.77;;
8252;SDS011;61313;48.396;10.008;2023-01-30T01:19:18;21.50;;;14.47;;
8252;SDS011;61313;48.396;10.008;2023-01-30T01:21:44;19.47;;;12.30;;
8252;SDS011;61313;48.396;10.008;2023-01-30T01:24:11;19.50;;;13.67;;
8252;SDS011;61313;48.396;10.008;2023-01-30T01:26:39;19.30;;;13.13;;
8252;SDS011;61313;48.396;10.008;2023-01-30T01:29:05;16.97;;;13.70;;
8252;SDS011;61313;48.396;10.008;2023-01-30T01:31:35;21.27;;;12.90;;
8252;SDS011;61313;48.396;10.008;2023-01-30T01:34:00;19.10;;;13.43;;
8252;SDS011;61313;48.396;10.008;2023-01-30T01:36:26;17.60;;;12.13;;
8252;SDS011;61313;48.396;10.008;2023-01-30T01:38:51;31.10;;;14.10;;
8252;SDS011;61313;48.396;10.008;2023-01-30T01:41:16;19.30;;;13.00;;
8252;SDS011;61313;48.396;10.008;2023-01-30T01:46:32;22.30;;;12.47;;
8252;SDS011;61313;48.396;10.008;2023-01-30T01:49:12;22.13;;;12.67;;
8252;SDS011;61313;48.396;10.008;2023-01-30T01:51:44;19.50;;;13.47;;
8252;SDS011;61313;48.396;10.008;2023-01-30T01:56:57;17.47;;;13.30;;
8252;SDS011;61313;48.396;10.008;2023-01-30T01:59:29;19.73;;;13.40;;
8252;SDS011;61313;48.396;10.008;2023-01-30T02:02:05;19.30;;;13.67;;
8252;SDS011;61313;48.396;10.008;2023-01-30T02:04:33;20.53;;;13.97;;
8252;SDS011;61313;48.396;10.008;2023-01-30T02:07:22;26.20;;;13.70;;
8252;SDS011;61313;48.396;10.008;2023-01-30T02:09:49;23.77;;;14.87;;
8252;SDS011;61313;48.396;10.008;2023-01-30T02:12:15;23.07;;;15.17;;
8252;SDS011;61313;48.396;10.008;2023-01-30T02:14:41;18.43;;;12.93;;
8252;SDS011;61313;48.396;10.008;2023-01-30T02:17:08;21.00;;;14.13;;
8252;SDS011;61313;48.396;10.008;2023-01-30T02:27:47;24.70;;;13.40;;
8252;SDS011;61313;48.396;10.008;2023-01-30T02:30:55;21.27;;;13.40;;
8252;SDS011;61313;48.396;10.008;2023-01-30T02:36:27;20.17;;;12.50;;
8252;SDS011;61313;48.396;10.008;2023-01-30T02:44:32;20.80;;;13.70;;
8252;SDS011;61313;48.396;10.008;2023-01-30T02:47:20;24.73;;;14.03;;
8252;SDS011;61313;48.396;10.008;2023-01-30T02:52:43;20.77;;;13.07;;
8252;SDS011;61313;48.396;10.008;2023-01-30T02:55:17;23.83;;;16.70;;
8252;SDS011;61313;48.396;10.008;2023-01-30T02:57:45;25.87;;;14.57;;
8252;SDS011;61313;48.396;10.008;2023-01-30T03:00:11;22.53;;;14.50;;
8252;SDS011;61313;48.396;10.008;2023-01-30T03:11:02;28.80;;;12.80;;
8252;SDS011;61313;48.396;10.008;2023-01-30T03:16:02;31.93;;;14.03;;
8252;SDS011;61313;48.396;10.008;2023-01-30T03:18:33;20.43;;;13.53;;
8252;SDS011;61313;48.396;10.008;2023-01-30T03:21:05;21.23;;;13.87;;
8252;SDS011;61313;48.396;10.008;2023-01-30T03:23:31;24.87;;;13.33;;
8252;SDS011;61313;48.396;10.008;2023-01-30T03:25:57;21.67;;;12.83;;
8252;SDS011;61313;48.396;10.008;2023-01-30T03:28:23;18.50;;;13.43;;
8252;SDS011;61313;48.396;10.008;2023-01-30T03:30:50;22.40;;;13.83;;
8252;SDS011;61313;48.396;10.008;2023-01-30T03:33:16;21.90;;;15.53;;
8252;SDS011;61313;48.396;10.008;2023-01-30T03:35:41;23.47;;;15.00;;
8252;SDS011;61313;48.396;10.008;2023-01-30T03:38:07;24.53;;;15.10;;
8252;SDS011;61313;48.396;10.008;2023-01-30T03:40:33;20.93;;;12.97;;
8252;SDS011;61313;48.396;10.008;2023-01-30T03:42:59;21.23;;;15.60;;
8252;SDS011;61313;48.396;10.008;2023-01-30T03:45:24;21.40;;;13.97;;
8252;SDS011;61313;48.396;10.008;2023-01-30T03:47:50;21.07;;;14.00;;
8252;SDS011;61313;48.396;10.008;2023-01-30T03:50:16;25.27;;;15.40;;
8252;SDS011;61313;48.396;10.008;2023-01-30T03:52:41;21.60;;;13.33;;
8252;SDS011;61313;48.396;10.008;2023-01-30T03:55:07;21.33;;;13.40;;
8252;SDS011;61313;48.396;10.008;2023-01-30T03:57:32;19.37;;;14.27;;
8252;SDS011;61313;48.396;10.008;2023-01-30T03:59:58;31.17;;;15.50;;
8252;SDS011;61313;48.396;10.008;2023-01-30T04:02:23;22.90;;;14.87;;
8252;SDS011;61313;48.396;10.008;2023-01-30T04:04:50;22.77;;;15.13;;
8252;SDS011;61313;48.396;10.008;2023-01-30T04:07:15;26.63;;;14.73;;
8252;SDS011;61313;48.396;10.008;2023-01-30T04:09:41;23.63;;;14.67;;
8252;SDS011;61313;48.396;10.008;2023-01-30T04:12:07;23.00;;;15.20;;
8252;SDS011;61313;48.396;10.008;2023-01-30T04:14:33;24.77;;;14.77;;
8252;SDS011;61313;48.396;10.008;2023-01-30T04:16:58;28.93;;;15.53;;
8252;SDS011;61313;48.396;10.008;2023-01-30T04:19:23;22.27;;;14.57;;
8252;SDS011;61313;48.396;10.008;2023-01-30T04:21:49;22.57;;;13.80;;
8252;SDS011;61313;48.396;10.008;2023-01-30T04:24:14;23.47;;;14.50;;
8252;SDS011;61313;48.396;10.008;2023-01-30T04:26:40;20.77;;;14.60;;
8252;SDS011;61313;48.396;10.008;2023-01-30T04:29:05;20.43;;;13.77;;
8252;SDS011;61313;48.396;10.008;2023-01-30T04:31:31;20.97;;;14.33;;
8252;SDS011;61313;48.396;10.008;2023-01-30T04:33:56;20.57;;;14.67;;
8252;SDS011;61313;48.396;10.008;2023-01-30T04:36:21;22.90;;;15.60;;
8252;SDS011;61313;48.396;10.008;2023-01-30T04:38:47;22.37;;;15.03;;
8252;SDS011;61313;48.396;10.008;2023-01-30T04:41:12;25.43;;;16.10;;
8252;SDS011;61313;48.396;10.008;2023-01-30T04:43:38;21.67;;;15.30;;
8252;SDS011;61313;48.396;10.008;2023-01-30T04:46:03;25.40;;;13.90;;
8252;SDS011;61313;48.396;10.008;2023-01-30T04:48:29;25.67;;;16.30;;
8252;SDS011;61313;48.396;10.008;2023-01-30T04:50:54;23.53;;;14.90;;
8252;SDS011;61313;48.396;10.008;2023-01-30T04:53:20;26.87;;;15.87;;
8252;SDS011;61313;48.396;10.008;2023-01-30T04:55:46;25.07;;;16.10;;
8252;SDS011;61313;48.396;10.008;2023-01-30T04:58:12;25.70;;;15.17;;
8252;SDS011;61313;48.396;10.008;2023-01-30T05:00:38;24.33;;;15.77;;
8252;SDS011;61313;48.396;10.008;2023-01-30T05:03:03;21.33;;;13.70;;
8252;SDS011;61313;48.396;10.008;2023-01-30T05:05:30;23.80;;;15.27;;
8252;SDS011;61313;48.396;10.008;2023-01-30T05:07:56;23.47;;;14.93;;
8252;SDS011;61313;48.396;10.008;2023-01-30T05:10:21;23.70;;;15.00;;
8252;SDS011;61313;48.396;10.008;2023-01-30T05:12:47;25.10;;;16.50;;
8252;SDS011;61313;48.396;10.008;2023-01-30T05:15:12;25.70;;;15.20;;
8252;SDS011;61313;48.396;10.008;2023-01-30T05:17:38;23.63;;;14.70;;
8252;SDS011;61313;48.396;10.008;2023-01-30T05:20:04;25.63;;;15.23;;
8252;SDS011;61313;48.396;10.008;2023-01-30T05:22:31;37.33;;;17.37;;
8252;SDS011;61313;48.396;10.008;2023-01-30T05:24:57;23.23;;;16.10;;
8252;SDS011;61313;48.396;10.008;2023-01-30T05:27:22;25.33;;;14.47;;
8252;SDS011;61313;48.396;10.008;2023-01-30T05:29:48;22.70;;;14.90;;
8252;SDS011;61313;48.396;10.008;2023-01-30T05:32:13;23.80;;;16.17;;
8252;SDS011;61313;48.396;10.008;2023-01-30T05:34:40;22.50;;;15.20;;
8252;SDS011;61313;48.396;10.008;2023-01-30T05:37:05;22.17;;;14.47;;
8252;SDS011;61313;48.396;10.008;2023-01-30T05:39:31;21.67;;;14.03;;
8252;SDS011;61313;48.396;10.008;2023-01-30T05:41:57;19.90;;;14.47;;
8252;SDS011;61313;48.396;10.008;2023-01-30T05:44:22;19.43;;;13.60;;
8252;SDS011;61313;48.396;10.008;2023-01-30T05:46:48;25.83;;;15.60;;
8252;SDS011;61313;48.396;10.008;2023-01-30T05:49:14;24.90;;;15.17;;
8252;SDS011;61313;48.396;10.008;2023-01-30T05:51:39;19.00;;;14.90;;
8252;SDS011;61313;48.396;10.008;2023-01-30T05:54:05;26.17;;;15.27;;
8252;SDS011;61313;48.396;10.008;2023-01-30T05:56:31;22.63;;;15.60;;
8252;SDS011;61313;48.396;10.008;2023-01-30T05:58:57;24.07;;;15.77;;
8252;SDS011;61313;48.396;10.008;2023-01-30T06:01:24;23.10;;;14.83;;
8252;SDS011;61313;48.396;10.008;2023-01-30T06:03:50;24.40;;;15.40;;
8252;SDS011;61313;48.396;10.008;2023-01-30T06:06:16;24.27;;;14.77;;
8252;SDS011;61313;48.396;10.008;2023-01-30T06:08:42;26.93;;;16.10;;
8252;SDS011;61313;48.396;10.008;2023-01-30T06:11:08;23.73;;;14.97;;
8252;SDS011;61313;48.396;10.008;2023-01-30T06:13:36;28.47;;;14.60;;
8252;SDS011;61313;48.396;10.008;2023-01-30T06:16:02;22.10;;;13.40;;
8252;SDS011;61313;48.396;10.008;2023-01-30T06:18:28;25.03;;;14.40;;
8252;SDS011;61313;48.396;10.008;2023-01-30T06:20:53;22.03;;;14.63;;
8252;SDS011;61313;48.396;10.008;2023-01-30T06:23:19;22.77;;;14.70;;
8252;SDS011;61313;48.396;10.008;2023-01-30T06:25:47;24.03;;;14.20;;
8252;SDS011;61313;48.396;10.008;2023-01-30T06:28:15;22.67;;;14.97;;
8252;SDS011;61313;48.396;10.008;2023-01-30T06:30:41;24.07;;;13.53;;
8252;SDS011;61313;48.396;10.008;2023-01-30T06:33:07;26.70;;;15.53;;
8252;SDS011;61313;48.396;10.008;2023-01-30T06:35:32;20.90;;;15.60;;
8252;SDS011;61313;48.396;10.008;2023-01-30T06:37:58;30.27;;;16.60;;
8252;SDS011;61313;48.396;10.008;2023-01-30T06:40:23;23.30;;;15.10;;
8252;SDS011;61313;48.396;10.008;2023-01-30T06:42:49;36.73;;;16.83;;
8252;SDS011;61313;48.396;10.008;2023-01-30T06:45:16;26.83;;;15.50;;
8252;SDS011;61313;48.396;10.008;2023-01-30T06:47:52;26.27;;;15.30;;
8252;SDS011;61313;48.396;10.008;2023-01-30T06:50:19;37.73;;;16.60;;
8252;SDS011;61313;48.396;10.008;2023-01-30T06:52:48;48.07;;;15.80;;
8252;SDS011;61313;48.396;10.008;2023-01-30T06:55:15;49.10;;;14.33;;
8252;SDS011;61313;48.396;10.008;2023-01-30T06:57:42;43.43;;;17.87;;
8252;SDS011;61313;48.396;10.008;2023-01-30T07:00:10;22.47;;;14.13;;
8252;SDS011;61313;48.396;10.008;2023-01-30T07:02:38;26.20;;;14.53;;
8252;SDS011;61313;48.396;10.008;2023-01-30T07:05:05;24.63;;;14.97;;
8252;SDS011;61313;48.396;10.008;2023-01-30T07:07:32;30.47;;;14.23;;
8252;SDS011;61313;48.396;10.008;2023-01-30T07:09:57;21.07;;;14.30;;
8252;SDS011;61313;48.396;10.008;2023-01-30T07:12:23;47.57;;;16.57;;
8252;SDS011;61313;48.396;10.008;2023-01-30T07:14:49;20.57;;;13.70;;
8252;SDS011;61313;48.396;10.008;2023-01-30T07:17:16;40.10;;;15.13;;
8252;SDS011;61313;48.396;10.008;2023-01-30T07:19:42;26.90;;;14.17;;
8252;SDS011;61313;48.396;10.008;2023-01-30T07:22:08;18.63;;;12.50;;
8252;SDS011;61313;48.396;10.008;2023-01-30T07:24:33;17.13;;;12.30;;
8252;SDS011;61313;48.396;10.008;2023-01-30T07:26:59;17.73;;;12.37;;
8252;SDS011;61313;48.396;10.008;2023-01-30T07:29:24;21.83;;;14.27;;
8252;SDS011;61313;48.396;10.008;2023-01-30T07:31:50;22.60;;;13.33;;
8252;SDS011;61313;48.396;10.008;2023-01-30T07:34:15;19.50;;;12.27;;
8252;SDS011;61313;48.396;10.008;2023-01-30T07:36:41;20.53;;;11.77;;
8252;SDS011;61313;48.396;10.008;2023-01-30T07:39:06;17.57;;;12.80;;
8252;SDS011;61313;48.396;10.008;2023-01-30T07:41:33;18.73;;;13.40;;
8252;SDS011;61313;48.396;10.008;2023-01-30T07:43:59;17.20;;;11.87;;
8252;SDS011;61313;48.396;10.008;2023-01-30T07:46:25;20.40;;;13.73;;
8252;SDS011;61313;48.396;10.008;2023-01-30T07:48:58;17.83;;;11.83;;
8252;SDS011;61313;48.396;10.008;2023-01-30T07:51:24;14.70;;;11.73;;
8252;SDS011;61313;48.396;10.008;2023-01-30T07:53:49;14.40;;;11.43;;
8252;SDS011;61313;48.396;10.008;2023-01-30T07:56:15;17.57;;;11.93;;
8252;SDS011;61313;48.396;10.008;2023-01-30T07:58:43;15.20;;;11.73;;
8252;SDS011;61313;48.396;10.008;2023-01-30T08:01:09;15.47;;;11.40;;
8252;SDS011;61313;48.396;10.008;2023-01-30T08:03:35;13.50;;;10.63;;
8252;SDS011;61313;48.396;10.008;2023-01-30T08:06:01;15.40;;;11.93;;
8252;SDS011;61313;48.396;10.008;2023-01-30T08:08:26;15.83;;;11.83;;
8252;SDS011;61313;48.396;10.008;2023-01-30T08:10:52;17.50;;;11.90;;
8252;SDS011;61313;48.396;10.008;2023-01-30T08:13:17;15.70;;;12.00;;
8252;SDS011;61313;48.396;10.008;2023-01-30T08:15:42;20.47;;;13.27;;
8252;SDS011;61313;48.396;10.008;2023-01-30T08:18:08;14.60;;;11.43;;
8252;SDS011;61313;48.396;10.008;2023-01-30T08:20:34;18.07;;;11.03;;
8252;SDS011;61313;48.396;10.008;2023-01-30T08:23:00;16.33;;;12.03;;
8252;SDS011;61313;48.396;10.008;2023-01-30T08:25:28;18.30;;;12.47;;
8252;SDS011;61313;48.396;10.008;2023-01-30T08:27:55;17.40;;;12.33;;
8252;SDS011;61313;48.396;10.008;2023-01-30T08:30:23;18.10;;;12.17;;
8252;SDS011;61313;48.396;10.008;2023-01-30T08:32:49;45.40;;;14.47;;
8252;SDS011;61313;48.396;10.008;2023-01-30T08:35:14;40.93;;;14.50;;
8252;SDS011;61313;48.396;10.008;2023-01-30T08:37:40;20.07;;;11.93;;
8252;SDS011;61313;48.396;10.008;2023-01-30T08:40:06;18.60;;;11.67;;
8252;SDS011;61313;48.396;10.008;2023-01-30T08:42:32;18.47;;;11.30;;
8252;SDS011;61313;48.396;10.008;2023-01-30T08:44:58;15.77;;;11.27;;
8252;SDS011;61313;48.396;10.008;2023-01-30T08:47:24;16.60;;;9.80;;
8252;SDS011;61313;48.396;10.008;2023-01-30T08:49:49;15.87;;;10.23;;
8252;SDS011;61313;48.396;10.008;2023-01-30T08:52:18;16.47;;;11.30;;
8252;SDS011;61313;48.396;10.008;2023-01-30T08:54:44;14.87;;;10.63;;
8252;SDS011;61313;48.396;10.008;2023-01-30T08:57:10;16.13;;;10.60;;
8252;SDS011;61313;48.396;10.008;2023-01-30T08:59:35;13.90;;;10.60;;
8252;SDS011;61313;48.396;10.008;2023-01-30T09:02:01;12.87;;;9.70;;
8252;SDS011;61313;48.396;10.008;2023-01-30T09:04:28;14.33;;;9.03;;
8252;SDS011;61313;48.396;10.008;2023-01-30T09:06:54;16.77;;;11.17;;
8252;SDS011;61313;48.396;10.008;2023-01-30T09:09:19;17.47;;;9.60;;
8252;SDS011;61313;48.396;10.008;2023-01-30T09:11:45;12.73;;;9.90;;
8252;SDS011;61313;48.396;10.008;2023-01-30T09:14:12;13.30;;;9.27;;
8252;SDS011;61313;48.396;10.008;2023-01-30T09:16:38;17.07;;;10.87;;
8252;SDS011;61313;48.396;10.008;2023-01-30T09:19:03;13.87;;;9.47;;
8252;SDS011;61313;48.396;10.008;2023-01-30T09:21:29;15.23;;;10.97;;
8252;SDS011;61313;48.396;10.008;2023-01-30T09:23:56;14.03;;;10.23;;
8252;SDS011;61313;48.396;10.008;2023-01-30T09:26:21;13.10;;;9.70;;
8252;SDS011;61313;48.396;10.008;2023-01-30T09:28:47;12.73;;;10.20;;
8252;SDS011;61313;48.396;10.008;2023-01-30T09:31:12;13.83;;;9.30;;
8252;SDS011;61313;48.396;10.008;2023-01-30T09:33:37;13.97;;;10.07;;
8252;SDS011;61313;48.396;10.008;2023-01-30T09:36:03;14.53;;;9.57;;
8252;SDS011;61313;48.396;10.008;2023-01-30T09:38:29;13.03;;;9.20;;
8252;SDS011;61313;48.396;10.008;2023-01-30T09:48:43;58.37;;;14.53;;
8252;SDS011;61313;48.396;10.008;2023-01-30T09:56:42;16.57;;;8.70;;
8252;SDS011;61313;48.396;10.008;2023-01-30T09:59:14;12.73;;;9.20;;
8252;SDS011;61313;48.396;10.008;2023-01-30T10:01:49;12.50;;;7.97;;
8252;SDS011;61313;48.396;10.008;2023-01-30T10:04:36;14.93;;;9.90;;
8252;SDS011;61313;48.396;10.008;2023-01-30T10:07:06;11.40;;;8.73;;
8252;SDS011;61313;48.396;10.008;2023-01-30T10:09:40;13.47;;;10.53;;
8252;SDS011;61313;48.396;10.008;2023-01-30T10:21:07;22.07;;;11.47;;
8252;SDS011;61313;48.396;10.008;2023-01-30T10:26:07;11.30;;;8.37;;
8252;SDS011;61313;48.396;10.008;2023-01-30T10:28:53;11.57;;;9.37;;
8252;SDS011;61313;48.396;10.008;2023-01-30T10:31:27;12.63;;;9.30;;
8252;SDS011;61313;48.396;10.008;2023-01-30T10:43:43;10.07;;;8.50;;
8252;SDS011;61313;48.396;10.008;2023-01-30T10:49:10;14.10;;;9.73;;
8252;SDS011;61313;48.396;10.008;2023-01-30T10:55:14;13.03;;;8.40;;
8252;SDS011;61313;48.396;10.008;2023-01-30T10:57:57;13.10;;;9.40;;
8252;SDS011;61313;48.396;10.008;2023-01-30T11:00:34;10.47;;;7.80;;
8252;SDS011;61313;48.396;10.008;2023-01-30T11:06:23;12.17;;;8.73;;
8252;SDS011;61313;48.396;10.008;2023-01-30T11:08:53;12.93;;;9.30;;
8252;SDS011;61313;48.396;10.008;2023-01-30T11:11:23;16.83;;;9.23;;
8252;SDS011;61313;48.396;10.008;2023-01-30T11:16:27;12.50;;;9.00;;
8252;SDS011;61313;48.396;10.008;2023-01-30T11:18:53;12.27;;;8.63;;
8252;SDS011;61313;48.396;10.008;2023-01-30T11:21:23;17.07;;;9.40;;
8252;SDS011;61313;48.396;10.008;2023-01-30T11:23:53;13.20;;;8.83;;
8252;SDS011;61313;48.396;10.008;2023-01-30T11:26:23;12.80;;;8.83;;
8252;SDS011;61313;48.396;10.008;2023-01-30T11:28:53;11.70;;;8.93;;
8252;SDS011;61313;48.396;10.008;2023-01-30T11:31:20;13.90;;;8.77;;
8252;SDS011;61313;48.396;10.008;2023-01-30T11:33:59;12.33;;;8.30;;
8252;SDS011;61313;48.396;10.008;2023-01-30T11:36:28;11.20;;;8.40;;
8252;SDS011;61313;48.396;10.008;2023-01-30T11:39:17;12.17;;;8.03;;
8252;SDS011;61313;48.396;10.008;2023-01-30T11:44:22;10.83;;;8.50;;
8252;SDS011;61313;48.396;10.008;2023-01-30T11:46:57;10.57;;;7.90;;
8252;SDS011;61313;48.396;10.008;2023-01-30T11:49:29;11.83;;;8.33;;
8252;SDS011;61313;48.396;10.008;2023-01-30T11:52:00;15.07;;;8.80;;
8252;SDS011;61313;48.396;10.008;2023-01-30T11:54:30;11.50;;;7.87;;
8252;SDS011;61313;48.396;10.008;2023-01-30T11:57:02;13.80;;;9.40;;
8252;SDS011;61313;48.396;10.008;2023-01-30T12:04:45;10.93;;;8.90;;
8252;SDS011;61313;48.396;10.008;2023-01-30T12:07:22;12.17;;;8.77;;
8252;SDS011;61313;48.396;10.008;2023-01-30T12:09:53;12.70;;;9.33;;
8252;SDS011;61313;48.396;10.008;2023-01-30T12:15:22;15.43;;;9.00;;
8252;SDS011;61313;48.396;10.008;2023-01-30T12:20:24;13.70;;;9.70;;
8252;SDS011;61313;48.396;10.008;2023-01-30T12:31:42;15.80;;;10.00;;
8252;SDS011;61313;48.396;10.008;2023-01-30T12:33:51;12.23;;;9.73;;
8252;SDS011;61313;48.396;10.008;2023-01-30T12:36:24;15.20;;;10.53;;
8252;SDS011;61313;48.396;10.008;2023-01-30T12:39:20;16.80;;;10.50;;
8252;SDS011;61313;48.396;10.008;2023-01-30T12:44:20;13.00;;;9.63;;
8252;SDS011;61313;48.396;10.008;2023-01-30T12:49:42;12.73;;;8.00;;
8252;SDS011;61313;48.396;10.008;2023-01-30T12:52:27;40.33;;;10.77;;
8252;SDS011;61313;48.396;10.008;2023-01-30T12:55:35;16.73;;;9.37;;
8252;SDS011;61313;48.396;10.008;2023-01-30T13:13:28;14.93;;;9.13;;
8252;SDS011;61313;48.396;10.008;2023-01-30T13:16:19;12.50;;;8.83;;
8252;SDS011;61313;48.396;10.008;2023-01-30T13:18:47;12.93;;;8.77;;
8252;SDS011;61313;48.396;10.008;2023-01-30T13:21:42;16.63;;;10.00;;
8252;SDS011;61313;48.396;10.008;2023-01-30T13:27:12;15.80;;;9.60;;
8252;SDS011;61313;48.396;10.008;2023-01-30T13:29:41;14.03;;;10.13;;
8252;SDS011;61313;48.396;10.008;2023-01-30T13:32:13;12.23;;;9.20;;
8252;SDS011;61313;48.396;10.008;2023-01-30T13:34:57;13.90;;;9.70;;
8252;SDS011;61313;48.396;10.008;2023-01-30T13:37:24;18.30;;;9.93;;
8252;SDS011;61313;48.396;10.008;2023-01-30T13:39:58;20.90;;;10.17;;
8252;SDS011;61313;48.396;10.008;2023-01-30T13:45:36;13.80;;;10.87;;
8252;SDS011;61313;48.396;10.008;2023-01-30T13:54:05;15.53;;;10.30;;
8252;SDS011;61313;48.396;10.008;2023-01-30T13:59:21;16.27;;;11.40;;
8252;SDS011;61313;48.396;10.008;2023-01-30T14:02:18;14.80;;;10.20;;
8252;SDS011;61313;48.396;10.008;2023-01-30T14:04:51;14.43;;;9.67;;
8252;SDS011;61313;48.396;10.008;2023-01-30T14:07:20;13.83;;;9.40;;
8252;SDS011;61313;48.396;10.008;2023-01-30T14:10:13;13.10;;;8.50;;
8252;SDS011;61313;48.396;10.008;2023-01-30T14:12:43;11.00;;;8.27;;
8252;SDS011;61313;48.396;10.008;2023-01-30T14:17:37;13.70;;;9.17;;
8252;SDS011;61313;48.396;10.008;2023-01-30T14:20:04;35.60;;;10.83;;
8252;SDS011;61313;48.396;10.008;2023-01-30T14:22:47;15.50;;;8.93;;
8252;SDS011;61313;48.396;10.008;2023-01-30T14:38:31;13.90;;;9.30;;
8252;SDS011;61313;48.396;10.008;2023-01-30T14:56:57;15.20;;;9.60;;
8252;SDS011;61313;48.396;10.008;2023-01-30T14:59:47;17.40;;;11.30;;
8252;SDS011;61313;48.396;10.008;2023-01-30T15:07:24;14.87;;;10.70;;
8252;SDS011;61313;48.396;10.008;2023-01-30T15:12:47;20.30;;;11.53;;
8252;SDS011;61313;48.396;10.008;2023-01-30T15:32:27;14.53;;;10.37;;
8252;SDS011;61313;48.396;10.008;2023-01-30T15:34:58;17.37;;;10.77;;
8252;SDS011;61313;48.396;10.008;2023-01-30T15:42:39;11.87;;;8.83;;
8252;SDS011;61313;48.396;10.008;2023-01-30T15:48:42;23.80;;;10.10;;
8252;SDS011;61313;48.396;10.008;2023-01-30T15:50:59;14.13;;;9.07;;
8252;SDS011;61313;48.396;10.008;2023-01-30T15:53:26;16.57;;;9.17;;
8252;SDS011;61313;48.396;10.008;2023-01-30T15:55:55;36.67;;;10.40;;
8252;SDS011;61313;48.396;10.008;2023-01-30T15:58:22;13.50;;;8.87;;
8252;SDS011;61313;48.396;10.008;2023-01-30T16:00:49;16.60;;;9.37;;
8252;SDS011;61313;48.396;10.008;2023-01-30T16:03:26;12.77;;;9.53;;
8252;SDS011;61313;48.396;10.008;2023-01-30T16:05:55;15.83;;;10.37;;
8252;SDS011;61313;48.396;10.008;2023-01-30T16:08:25;15.13;;;9.23;;
8252;SDS011;61313;48.396;10.008;2023-01-30T16:10:52;14.23;;;9.00;;
8252;SDS011;61313;48.396;10.008;2023-01-30T16:13:19;16.10;;;9.17;;
8252;SDS011;61313;48.396;10.008;2023-01-30T16:16:03;17.13;;;10.40;;
8252;SDS011;61313;48.396;10.008;2023-01-30T16:21:18;14.00;;;10.00;;
8252;SDS011;61313;48.396;10.008;2023-01-30T16:26:28;21.60;;;11.20;;
8252;SDS011;61313;48.396;10.008;2023-01-30T16:29:02;24.33;;;9.83;;
8252;SDS011;61313;48.396;10.008;2023-01-30T16:31:31;23.13;;;9.87;;
8252;SDS011;61313;48.396;10.008;2023-01-30T16:33:58;13.03;;;9.87;;
8252;SDS011;61313;48.396;10.008;2023-01-30T16:38:49;22.83;;;9.77;;
8252;SDS011;61313;48.396;10.008;2023-01-30T16:44:17;19.70;;;9.43;;
8252;SDS011;61313;48.396;10.008;2023-01-30T16:49:25;11.90;;;7.83;;
8252;SDS011;61313;48.396;10.008;2023-01-30T16:52:03;13.63;;;9.07;;
8252;SDS011;61313;48.396;10.008;2023-01-30T16:54:30;16.07;;;8.20;;
8252;SDS011;61313;48.396;10.008;2023-01-30T16:56:58;13.13;;;9.10;;
8252;SDS011;61313;48.396;10.008;2023-01-30T16:59:29;13.80;;;9.70;;
8252;SDS011;61313;48.396;10.008;2023-01-30T17:01:56;12.07;;;8.80;;
8252;SDS011;61313;48.396;10.008;2023-01-30T17:04:26;11.83;;;7.90;;
8252;SDS011;61313;48.396;10.008;2023-01-30T17:06:57;12.33;;;8.87;;
8252;SDS011;61313;48.396;10.008;2023-01-30T17:17:37;11.57;;;8.10;;
8252;SDS011;61313;48.396;10.008;2023-01-30T17:20:03;8.27;;;7.23;;
8252;SDS011;61313;48.396;10.008;2023-01-30T17:22:29;11.17;;;8.67;;
8252;SDS011;61313;48.396;10.008;2023-01-30T17:24:58;12.97;;;8.00;;
8252;SDS011;61313;48.396;10.008;2023-01-30T17:27:27;15.53;;;8.70;;
8252;SDS011;61313;48.396;10.008;2023-01-30T17:29:53;8.53;;;5.30;;
8252;SDS011;61313;48.396;10.008;2023-01-30T17:32:19;9.87;;;7.00;;
8252;SDS011;61313;48.396;10.008;2023-01-30T17:34:44;8.43;;;6.17;;
8252;SDS011;61313;48.396;10.008;2023-01-30T17:37:14;12.40;;;9.17;;
8252;SDS011;61313;48.396;10.008;2023-01-30T17:39:41;9.53;;;8.03;;
8252;SDS011;61313;48.396;10.008;2023-01-30T17:42:10;15.30;;;8.37;;
8252;SDS011;61313;48.396;10.008;2023-01-30T17:44:36;14.77;;;9.00;;
8252;SDS011;61313;48.396;10.008;2023-01-30T17:47:02;14.83;;;9.90;;
8252;SDS011;61313;48.396;10.008;2023-01-30T17:49:28;11.63;;;7.50;;
8252;SDS011;61313;48.396;10.008;2023-01-30T17:51:53;10.07;;;8.27;;
8252;SDS011;61313;48.396;10.008;2023-01-30T17:54:19;10.67;;;7.40;;
8252;SDS011;61313;48.396;10.008;2023-01-30T17:57:08;9.80;;;6.57;;
8252;SDS011;61313;48.396;10.008;2023-01-30T17:59:35;10.43;;;6.83;;
8252;SDS011;61313;48.396;10.008;2023-01-30T18:02:01;10.73;;;7.00;;
8252;SDS011;61313;48.396;10.008;2023-01-30T18:04:27;10.57;;;7.90;;
8252;SDS011;61313;48.396;10.008;2023-01-30T18:06:53;13.00;;;6.90;;
8252;SDS011;61313;48.396;10.008;2023-01-30T18:09:23;11.77;;;6.97;;
8252;SDS011;61313;48.396;10.008;2023-01-30T18:11:49;8.97;;;6.10;;
8252;SDS011;61313;48.396;10.008;2023-01-30T18:14:15;11.03;;;6.67;;
8252;SDS011;61313;48.396;10.008;2023-01-30T18:16:41;13.00;;;7.57;;
8252;SDS011;61313;48.396;10.008;2023-01-30T18:19:08;11.23;;;7.17;;
8252;SDS011;61313;48.396;10.008;2023-01-30T18:21:37;7.90;;;6.43;;